Time;durP1;ratioP1;P1;durP2;ratioP2;P2;SDS_P1;SDS_P2;PMS_P1;PMS_P2;Temp;Humidity;BMP_temperature;BMP_pressure;BME280_temperature;BME280_humidity;BME280_pressure;Samples;Min_cycle;Max_cycle;Signal;HPM_P1;HPM_P2
2023/07/31 00:02:49;;;;;;;12.48;9.10;;;;;;;;;;6218978;28;20088;-75
2023/07/31 00:05:50;;;;;;;14.27;10.30;;;;;;;;;;6220036;28;20054;-75
2023/07/31 00:08:51;;;;;;;11.77;8.90;;;;;;;;;;6217916;28;20054;-75
2023/07/31 00:11:54;;;;;;;13.13;9.70;;;;;;;;;;6216259;28;20043;-76
2023/07/31 00:14:56;;;;;;;13.60;10.95;;;;;;;;;;6216742;28;20062;-76
2023/07/31 00:17:57;;;;;;;13.32;11.93;;;;;;;;;;6218346;28;20381;-76
2023/07/31 00:20:59;;;;;;;13.20;10.13;;;;;;;;;;6219527;28;20273;-76
2023/07/31 00:24:00;;;;;;;13.43;11.98;;;;;;;;;;6219927;28;20053;-75
2023/07/31 00:27:03;;;;;;;12.32;11.05;;;;;;;;;;6216015;28;20472;-75
2023/07/31 00:30:05;;;;;;;14.52;12.35;;;;;;;;;;6216463;28;20054;-75
2023/07/31 00:33:06;;;;;;;19.60;13.38;;;;;;;;;;6218530;28;20533;-76
2023/07/31 00:36:07;;;;;;;15.23;13.45;;;;;;;;;;6218811;28;20066;-75
2023/07/31 00:39:09;;;;;;;15.40;11.88;;;;;;;;;;6215981;28;20054;-75
2023/07/31 00:42:12;;;;;;;15.45;11.70;;;;;;;;;;6218827;28;20125;-76
2023/07/31 00:45:13;;;;;;;15.70;12.50;;;;;;;;;;6216197;28;20053;-75
2023/07/31 00:48:15;;;;;;;14.75;11.52;;;;;;;;;;6216883;28;20050;-75
2023/07/31 00:51:16;;;;;;;17.27;11.85;;;;;;;;;;6213887;28;20050;-75
2023/07/31 00:54:18;;;;;;;14.10;10.90;;;;;;;;;;6215301;28;20767;-75
2023/07/31 00:57:20;;;;;;;13.48;12.00;;;;;;;;;;6216930;28;20350;-76
2023/07/31 01:00:22;;;;;;;14.52;11.38;;;;;;;;;;6217984;28;20058;-75
2023/07/31 01:03:23;;;;;;;11.77;10.38;;;;;;;;;;6218347;28;20058;-75
2023/07/31 01:06:29;;;;;;;13.77;10.25;;;;;;;;;;6215622;28;20062;-75
2023/07/31 01:09:35;;;;;;;10.95;9.85;;;;;;;;;;6215961;28;20038;-76
2023/07/31 01:12:39;;;;;;;11.18;9.30;;;;;;;;;;6218650;28;20248;-75
2023/07/31 01:15:40;;;;;;;12.07;9.50;;;;;;;;;;6217142;28;20109;-76
2023/07/31 01:18:41;;;;;;;14.63;9.07;;;;;;;;;;6216499;28;20128;-75
2023/07/31 01:21:53;;;;;;;11.55;8.95;;;;;;;;;;6218608;28;20099;-75
2023/07/31 01:25:01;;;;;;;9.00;8.07;;;;;;;;;;6214867;28;20053;-75
2023/07/31 01:28:05;;;;;;;10.30;8.65;;;;;;;;;;6217463;28;20050;-75
2023/07/31 01:31:08;;;;;;;8.63;7.75;;;;;;;;;;6215097;28;20057;-75
2023/07/31 01:34:10;;;;;;;8.75;7.28;;;;;;;;;;6215210;28;20065;-75
2023/07/31 01:37:12;;;;;;;10.18;7.78;;;;;;;;;;6216720;28;20052;-75
2023/07/31 01:40:14;;;;;;;8.40;7.18;;;;;;;;;;6217145;28;20245;-75
2023/07/31 01:43:17;;;;;;;13.60;7.80;;;;;;;;;;6214354;28;20065;-75
2023/07/31 01:46:18;;;;;;;9.93;7.15;;;;;;;;;;6216750;28;20058;-74
2023/07/31 01:49:19;;;;;;;7.50;6.32;;;;;;;;;;6213290;28;20068;-75
2023/07/31 01:52:21;;;;;;;7.25;6.28;;;;;;;;;;6217010;28;20338;-75
2023/07/31 01:55:22;;;;;;;6.20;5.60;;;;;;;;;;6216160;28;20080;-75
2023/07/31 01:58:25;;;;;;;10.43;5.85;;;;;;;;;;6215888;28;20100;-75
2023/07/31 02:01:27;;;;;;;8.18;5.50;;;;;;;;;;6215069;28;20237;-75
2023/07/31 02:04:28;;;;;;;6.95;4.90;;;;;;;;;;6217619;28;20349;-75
2023/07/31 02:07:29;;;;;;;8.80;5.28;;;;;;;;;;6213078;28;20054;-75
2023/07/31 02:10:31;;;;;;;6.88;5.03;;;;;;;;;;6214030;28;20057;-74
2023/07/31 02:13:34;;;;;;;6.85;4.90;;;;;;;;;;6214159;28;20054;-75
2023/07/31 02:16:35;;;;;;;6.95;5.32;;;;;;;;;;6216409;28;20059;-75
2023/07/31 02:19:36;;;;;;;8.50;5.03;;;;;;;;;;6214216;28;20065;-76
2023/07/31 02:22:38;;;;;;;7.18;4.80;;;;;;;;;;6212550;28;22799;-75
2023/07/31 02:25:39;;;;;;;7.47;4.53;;;;;;;;;;6219223;28;20108;-75
2023/07/31 02:28:43;;;;;;;6.35;3.72;;;;;;;;;;6219828;28;20054;-75
2023/07/31 02:31:44;;;;;;;6.35;4.35;;;;;;;;;;6212824;28;20329;-77
2023/07/31 02:34:45;;;;;;;5.47;4.07;;;;;;;;;;6211331;28;20054;-75
2023/07/31 02:37:47;;;;;;;4.82;3.65;;;;;;;;;;6212376;28;20061;-76
2023/07/31 02:40:49;;;;;;;6.63;4.20;;;;;;;;;;6210656;28;20384;-75
2023/07/31 02:43:51;;;;;;;5.03;3.90;;;;;;;;;;6215680;28;20054;-76
2023/07/31 02:46:53;;;;;;;4.88;4.22;;;;;;;;;;6207995;28;20050;-75
2023/07/31 02:49:55;;;;;;;5.88;4.20;;;;;;;;;;6208216;28;20061;-75
2023/07/31 02:52:57;;;;;;;5.75;4.05;;;;;;;;;;6209270;28;20100;-75
2023/07/31 02:55:58;;;;;;;7.10;3.85;;;;;;;;;;6207259;28;20113;-75
2023/07/31 02:59:01;;;;;;;6.05;3.80;;;;;;;;;;6214228;28;20053;-76
2023/07/31 03:02:03;;;;;;;5.13;3.83;;;;;;;;;;6213206;28;20053;-75
2023/07/31 03:05:04;;;;;;;3.75;3.25;;;;;;;;;;6216479;28;20065;-76
2023/07/31 03:08:06;;;;;;;4.72;3.92;;;;;;;;;;6211805;28;20219;-75
2023/07/31 03:11:07;;;;;;;4.75;3.80;;;;;;;;;;6211132;28;20050;-75
2023/07/31 03:14:10;;;;;;;5.03;3.92;;;;;;;;;;6208199;28;20081;-75
2023/07/31 03:17:11;;;;;;;7.38;4.10;;;;;;;;;;6204979;28;20346;-75
2023/07/31 03:20:13;;;;;;;4.72;3.78;;;;;;;;;;6213421;28;20054;-75
2023/07/31 03:23:14;;;;;;;4.80;3.85;;;;;;;;;;6213997;28;20353;-75
2023/07/31 03:26:16;;;;;;;5.55;3.75;;;;;;;;;;6212658;28;20364;-75
2023/07/31 03:29:18;;;;;;;7.72;4.50;;;;;;;;;;6209815;28;20054;-75
2023/07/31 03:32:20;;;;;;;7.88;4.13;;;;;;;;;;6216379;28;20703;-75
2023/07/31 03:35:21;;;;;;;5.03;3.80;;;;;;;;;;6219628;28;20078;-75
2023/07/31 03:38:23;;;;;;;7.25;4.50;;;;;;;;;;6218178;28;20345;-76
2023/07/31 03:41:24;;;;;;;5.07;3.90;;;;;;;;;;6219002;28;20321;-75
2023/07/31 03:44:27;;;;;;;6.53;4.50;;;;;;;;;;6217008;28;20341;-75
2023/07/31 03:47:30;;;;;;;6.22;4.10;;;;;;;;;;6213852;28;20054;-76
2023/07/31 03:50:31;;;;;;;7.28;4.10;;;;;;;;;;6214428;28;20377;-75
2023/07/31 03:53:33;;;;;;;5.10;3.80;;;;;;;;;;6214567;28;20367;-75
2023/07/31 03:56:34;;;;;;;5.90;3.95;;;;;;;;;;6213657;28;20058;-76
2023/07/31 03:59:38;;;;;;;7.50;4.40;;;;;;;;;;6211548;28;20082;-75
2023/07/31 04:02:39;;;;;;;9.18;4.30;;;;;;;;;;6190747;28;20105;-76
2023/07/31 04:05:41;;;;;;;7.88;4.72;;;;;;;;;;6187569;28;20061;-75
2023/07/31 04:08:42;;;;;;;6.80;5.05;;;;;;;;;;6186940;28;20078;-75
2023/07/31 04:11:44;;;;;;;5.70;4.45;;;;;;;;;;6189739;28;20042;-75
2023/07/31 04:14:47;;;;;;;7.00;4.38;;;;;;;;;;6193920;28;20105;-75
2023/07/31 04:17:48;;;;;;;4.82;3.70;;;;;;;;;;6195977;28;20054;-76
2023/07/31 04:20:49;;;;;;;6.65;4.70;;;;;;;;;;6191364;28;20065;-75
2023/07/31 04:23:51;;;;;;;5.28;3.65;;;;;;;;;;6189273;28;20058;-76
2023/07/31 04:26:53;;;;;;;6.65;4.47;;;;;;;;;;6193676;28;20084;-75
2023/07/31 04:29:55;;;;;;;5.47;3.60;;;;;;;;;;6188741;28;20066;-75
2023/07/31 04:32:57;;;;;;;8.13;4.47;;;;;;;;;;6190766;28;20050;-75
2023/07/31 04:35:58;;;;;;;4.43;3.85;;;;;;;;;;6189098;28;20247;-76
2023/07/31 04:39:00;;;;;;;6.93;3.55;;;;;;;;;;6188913;28;20353;-75
2023/07/31 04:42:01;;;;;;;4.10;3.70;;;;;;;;;;6192917;28;20101;-75
2023/07/31 04:45:05;;;;;;;5.47;3.70;;;;;;;;;;6188112;28;20134;-75
2023/07/31 04:48:06;;;;;;;6.07;4.00;;;;;;;;;;6187752;28;20354;-75
2023/07/31 04:51:08;;;;;;;5.50;3.85;;;;;;;;;;6185406;28;20085;-75
2023/07/31 04:54:09;;;;;;;4.80;3.97;;;;;;;;;;6192236;28;20074;-75
2023/07/31 04:57:10;;;;;;;4.35;3.70;;;;;;;;;;6191216;28;20042;-75
2023/07/31 05:00:13;;;;;;;4.75;3.78;;;;;;;;;;6195824;28;20061;-75
2023/07/31 05:03:15;;;;;;;5.55;4.20;;;;;;;;;;6193778;28;20054;-75
2023/07/31 05:06:16;;;;;;;6.20;4.07;;;;;;;;;;6192791;28;20054;-75
2023/07/31 05:09:18;;;;;;;4.00;3.60;;;;;;;;;;6188489;28;20058;-75
2023/07/31 05:12:20;;;;;;;6.20;3.80;;;;;;;;;;6189920;28;20265;-76
2023/07/31 05:15:22;;;;;;;4.07;3.47;;;;;;;;;;6194247;28;20366;-76
2023/07/31 05:18:24;;;;;;;5.18;3.63;;;;;;;;;;6194159;28;20050;-74
2023/07/31 05:21:25;;;;;;;5.75;3.92;;;;;;;;;;6191710;28;20054;-75
2023/07/31 05:24:27;;;;;;;5.05;3.58;;;;;;;;;;6193909;28;20054;-74
2023/07/31 05:27:28;;;;;;;4.45;3.42;;;;;;;;;;6192264;28;20109;-74
2023/07/31 05:30:32;;;;;;;5.38;3.60;;;;;;;;;;6189509;28;20053;-75
2023/07/31 05:33:33;;;;;;;4.80;3.75;;;;;;;;;;6185528;28;20075;-74
2023/07/31 05:36:35;;;;;;;4.68;3.38;;;;;;;;;;6185735;28;20058;-74
2023/07/31 05:39:36;;;;;;;5.15;3.70;;;;;;;;;;6184567;28;20061;-74
2023/07/31 05:42:38;;;;;;;5.05;3.53;;;;;;;;;;6191075;28;20063;-74
2023/07/31 05:45:43;;;;;;;6.63;3.50;;;;;;;;;;6194690;28;20330;-75
2023/07/31 05:48:44;;;;;;;10.05;4.50;;;;;;;;;;6191719;28;20050;-74
2023/07/31 05:51:46;;;;;;;5.00;3.65;;;;;;;;;;6188558;28;20357;-77
2023/07/31 05:54:47;;;;;;;8.88;3.90;;;;;;;;;;6191859;28;20101;-76
2023/07/31 05:57:49;;;;;;;8.93;3.70;;;;;;;;;;6190632;28;20046;-77
2023/07/31 06:00:52;;;;;;;3.88;3.17;;;;;;;;;;6202953;28;20062;-75
2023/07/31 06:03:53;;;;;;;3.95;3.33;;;;;;;;;;6205520;28;20108;-77
2023/07/31 06:06:55;;;;;;;5.97;3.75;;;;;;;;;;6218075;28;20054;-77
2023/07/31 06:10:01;;;;;;;4.88;3.50;;;;;;;;;;6214814;28;20053;-77
2023/07/31 06:13:02;;;;;;;6.35;3.28;;;;;;;;;;6212513;28;21985;-78
2023/07/31 06:16:06;;;;;;;4.63;3.13;;;;;;;;;;6216759;28;20054;-76
2023/07/31 06:19:07;;;;;;;5.07;3.47;;;;;;;;;;6214784;28;20061;-76
2023/07/31 06:22:09;;;;;;;8.88;3.47;;;;;;;;;;6211201;28;20121;-76
2023/07/31 06:25:10;;;;;;;5.30;2.90;;;;;;;;;;6212905;28;20065;-77
2023/07/31 06:28:12;;;;;;;4.13;3.08;;;;;;;;;;6218631;28;20054;-76
2023/07/31 06:31:14;;;;;;;4.95;3.40;;;;;;;;;;6213189;28;20145;-77
2023/07/31 06:34:16;;;;;;;5.57;3.30;;;;;;;;;;6214979;28;20139;-77
2023/07/31 06:37:17;;;;;;;5.25;3.35;;;;;;;;;;6215695;28;20046;-76
2023/07/31 06:40:19;;;;;;;6.50;3.13;;;;;;;;;;6217219;28;20049;-76
2023/07/31 06:43:20;;;;;;;3.20;2.80;;;;;;;;;;6213297;28;20299;-77
2023/07/31 06:46:23;;;;;;;3.65;3.15;;;;;;;;;;6215141;28;20060;-77
2023/07/31 06:49:25;;;;;;;3.83;3.00;;;;;;;;;;6216296;28;20821;-77
2023/07/31 06:52:26;;;;;;;5.72;3.38;;;;;;;;;;6215395;28;20120;-77
2023/07/31 06:55:28;;;;;;;5.60;3.20;;;;;;;;;;6219655;28;20314;-76
2023/07/31 06:58:29;;;;;;;6.28;2.85;;;;;;;;;;6217844;28;20049;-77
2023/07/31 07:01:32;;;;;;;3.60;2.90;;;;;;;;;;6215716;28;20046;-79
2023/07/31 07:04:33;;;;;;;4.80;3.45;;;;;;;;;;6201795;28;20602;-77
2023/07/31 07:07:35;;;;;;;4.82;3.15;;;;;;;;;;6213165;28;20053;-76
2023/07/31 07:10:37;;;;;;;4.10;3.20;;;;;;;;;;6220318;28;20054;-77
2023/07/31 07:13:39;;;;;;;3.22;2.30;;;;;;;;;;6221817;28;20046;-77
2023/07/31 07:16:41;;;;;;;3.15;1.73;;;;;;;;;;6219143;28;20069;-77
2023/07/31 07:19:43;;;;;;;2.75;1.85;;;;;;;;;;6217620;28;20356;-76
2023/07/31 07:22:44;;;;;;;2.70;1.90;;;;;;;;;;6216363;28;20046;-76
2023/07/31 07:25:46;;;;;;;3.15;1.70;;;;;;;;;;6221459;28;20392;-78
2023/07/31 07:28:47;;;;;;;1.90;1.63;;;;;;;;;;6215989;28;20787;-79
2023/07/31 07:31:50;;;;;;;2.38;2.10;;;;;;;;;;6218620;28;20049;-79
2023/07/31 07:34:52;;;;;;;3.60;2.22;;;;;;;;;;6219823;28;20058;-79
2023/07/31 07:37:53;;;;;;;3.42;2.30;;;;;;;;;;6218315;28;20131;-79
2023/07/31 07:40:55;;;;;;;4.55;1.60;;;;;;;;;;6217172;28;20058;-79
2023/07/31 07:43:56;;;;;;;1.92;1.63;;;;;;;;;;6218264;28;20064;-78
2023/07/31 07:46:59;;;;;;;5.47;2.03;;;;;;;;;;6217618;28;20073;-79
2023/07/31 07:50:01;;;;;;;5.47;2.03;;;;;;;;;;6210459;28;20061;-78
2023/07/31 07:53:02;;;;;;;3.55;1.95;;;;;;;;;;6216600;28;20173;-79
2023/07/31 07:56:04;;;;;;;2.70;1.63;;;;;;;;;;6212202;28;20054;-79
2023/07/31 07:59:05;;;;;;;2.72;2.22;;;;;;;;;;6218048;28;20072;-79
2023/07/31 08:02:08;;;;;;;2.72;2.00;;;;;;;;;;6218469;28;20345;-80
2023/07/31 08:05:09;;;;;;;2.75;2.10;;;;;;;;;;6212663;28;20049;-79
2023/07/31 08:08:11;;;;;;;2.47;2.00;;;;;;;;;;6215831;28;20061;-79
2023/07/31 08:11:13;;;;;;;2.25;1.73;;;;;;;;;;6216501;28;20050;-79
2023/07/31 08:14:14;;;;;;;2.75;1.55;;;;;;;;;;6214782;28;20058;-77
2023/07/31 08:17:17;;;;;;;3.25;2.00;;;;;;;;;;6218745;28;20353;-78
2023/07/31 08:20:18;;;;;;;2.50;1.98;;;;;;;;;;6213116;28;20334;-76
2023/07/31 08:23:20;;;;;;;2.45;1.90;;;;;;;;;;6216052;28;20346;-81
2023/07/31 08:26:21;;;;;;;2.58;2.03;;;;;;;;;;6215802;28;20062;-78
2023/07/31 08:29:23;;;;;;;4.18;2.22;;;;;;;;;;6216410;28;20318;-78
2023/07/31 08:32:26;;;;;;;2.38;2.10;;;;;;;;;;6219237;28;20045;-78
2023/07/31 08:35:29;;;;;;;3.30;2.47;;;;;;;;;;6215491;28;20042;-77
2023/07/31 08:38:31;;;;;;;3.53;2.10;;;;;;;;;;6215664;28;20113;-77
2023/07/31 08:41:32;;;;;;;2.67;2.05;;;;;;;;;;6213423;28;20211;-78
2023/07/31 08:44:34;;;;;;;3.50;2.30;;;;;;;;;;6216097;28;20053;-79
2023/07/31 08:47:37;;;;;;;2.90;2.15;;;;;;;;;;6219909;28;20054;-80
2023/07/31 08:50:39;;;;;;;3.10;2.33;;;;;;;;;;6214886;28;20053;-77
2023/07/31 08:53:40;;;;;;;3.72;2.13;;;;;;;;;;6218607;28;20045;-78
2023/07/31 08:56:43;;;;;;;3.33;2.30;;;;;;;;;;6217147;28;20096;-77
2023/07/31 08:59:44;;;;;;;;;;;;;;;;;;6177405;28;1113442;-80
2023/07/31 09:02:49;;;;;;;2.25;1.90;;;;;;;;;;6214407;28;19935;-80
2023/07/31 09:05:50;;;;;;;3.90;2.05;;;;;;;;;;6220055;28;20089;-79
2023/07/31 09:08:52;;;;;;;2.07;1.77;;;;;;;;;;6214702;28;20066;-78
2023/07/31 09:11:54;;;;;;;2.90;2.00;;;;;;;;;;6213153;28;20049;-79
2023/07/31 09:14:55;;;;;;;2.15;1.65;;;;;;;;;;6214436;28;20338;-78
2023/07/31 09:18:02;;;;;;;3.05;1.70;;;;;;;;;;6219408;28;20042;-78
2023/07/31 09:21:04;;;;;;;4.07;2.10;;;;;;;;;;6215337;28;20345;-77
2023/07/31 09:24:05;;;;;;;3.72;3.20;;;;;;;;;;6216953;28;20351;-80
2023/07/31 09:27:07;;;;;;;3.15;2.22;;;;;;;;;;6213292;28;20215;-78
2023/07/31 09:30:09;;;;;;;3.07;2.70;;;;;;;;;;6211654;28;20084;-78
2023/07/31 09:33:12;;;;;;;6.47;2.80;;;;;;;;;;6217300;28;20072;-77
2023/07/31 09:36:13;;;;;;;5.53;2.50;;;;;;;;;;6217879;28;20068;-77
2023/07/31 09:39:16;;;;;;;2.65;2.00;;;;;;;;;;6214392;28;20111;-79
2023/07/31 09:42:25;;;;;;;4.90;3.60;;;;;;;;;;6216791;28;20057;-78
2023/07/31 09:45:27;;;;;;;4.45;2.35;;;;;;;;;;6216246;28;20341;-78
2023/07/31 09:48:30;;;;;;;;;;;;;;;;;;6215627;28;20046;-79
2023/07/31 09:51:37;;;;;;;3.65;3.20;;;;;;;;;;6216323;28;20047;-77
2023/07/31 09:54:39;;;;;;;4.57;3.40;;;;;;;;;;6213938;28;20061;-78
2023/07/31 09:57:41;;;;;;;5.28;3.53;;;;;;;;;;6218772;28;20066;-78
2023/07/31 10:00:42;;;;;;;;;;;;;;;;;;6201535;28;20339;-78
2023/07/31 10:03:46;;;;;;;6.75;4.05;;;;;;;;;;6189724;28;19926;-77
2023/07/31 10:06:51;;;;;;;4.03;3.30;;;;;;;;;;6191624;28;20054;-79
2023/07/31 10:09:53;;;;;;;5.22;4.60;;;;;;;;;;6188062;28;20061;-78
2023/07/31 10:12:55;;;;;;;6.80;4.75;;;;;;;;;;6193956;28;20057;-77
2023/07/31 10:15:59;;;;;;;6.72;4.35;;;;;;;;;;6191245;28;20066;-78
2023/07/31 10:19:01;;;;;;;4.80;4.28;;;;;;;;;;6188310;28;20070;-78
2023/07/31 10:22:04;;;;;;;5.20;3.72;;;;;;;;;;6189753;28;20056;-78
2023/07/31 10:25:08;;;;;;;6.20;3.80;;;;;;;;;;6192103;28;20327;-78
2023/07/31 10:28:11;;;;;;;6.25;4.40;;;;;;;;;;6192482;28;20061;-79
2023/07/31 10:31:13;;;;;;;6.63;4.43;;;;;;;;;;6191802;28;20274;-78
2023/07/31 10:34:14;;;;;;;;;;;;;;;;;;6199151;28;20113;-79
2023/07/31 10:37:24;;;;;;;5.57;4.00;;;;;;;;;;6199196;28;19934;-78
2023/07/31 10:40:26;;;;;;;4.32;3.92;;;;;;;;;;6192943;28;20055;-78
2023/07/31 10:43:27;;;;;;;;;;;;;;;;;;6194134;28;20046;-79
2023/07/31 10:46:29;;;;;;;5.03;4.53;;;;;;;;;;6196784;28;19977;-81
2023/07/31 10:49:31;;;;;;;5.85;4.80;;;;;;;;;;6217959;28;20048;-78
2023/07/31 10:52:35;;;;;;;3.80;3.40;;;;;;;;;;6218486;28;20100;-79
2023/07/31 10:55:40;;;;;;;6.10;4.20;;;;;;;;;;6222306;28;20257;-79
2023/07/31 10:58:44;;;;;;;4.65;3.20;;;;;;;;;;6218857;28;20062;-78
2023/07/31 11:01:52;;;;;;;4.47;4.07;;;;;;;;;;6219244;28;20317;-78
2023/07/31 11:05:09;;;;;;;8.35;3.67;;;;;;;;;;6218907;28;20088;-77
2023/07/31 11:08:13;;;;;;;3.13;2.47;;;;;;;;;;6220588;28;20057;-78
2023/07/31 11:11:15;;;;;;;5.05;4.00;;;;;;;;;;6217352;28;20050;-77
2023/07/31 11:14:17;;;;;;;5.55;3.20;;;;;;;;;;6219643;28;20053;-77
2023/07/31 11:17:18;;;;;;;3.53;3.22;;;;;;;;;;6217560;28;20049;-78
2023/07/31 11:20:19;;;;;;;4.75;4.00;;;;;;;;;;6222218;28;20065;-78
2023/07/31 11:23:23;;;;;;;4.75;3.13;;;;;;;;;;6221249;28;20062;-80
2023/07/31 11:26:24;;;;;;;5.47;3.20;;;;;;;;;;6220347;28;20081;-78
2023/07/31 11:29:28;;;;;;;3.90;2.85;;;;;;;;;;6220548;28;20053;-78
2023/07/31 11:32:29;;;;;;;4.47;2.42;;;;;;;;;;6218589;28;20058;-77
2023/07/31 11:35:32;;;;;;;5.65;3.30;;;;;;;;;;6220209;28;20377;-78
2023/07/31 11:38:35;;;;;;;3.88;2.45;;;;;;;;;;6221459;28;20070;-78
2023/07/31 11:41:36;;;;;;;5.85;3.13;;;;;;;;;;6214804;28;20061;-81
2023/07/31 11:44:47;;;;;;;3.03;2.72;;;;;;;;;;6218023;28;20046;-79
2023/07/31 11:47:49;;;;;;;4.57;2.93;;;;;;;;;;6220405;28;20073;-77
2023/07/31 11:50:51;;;;;;;4.10;2.67;;;;;;;;;;6215496;28;20065;-77
2023/07/31 11:53:56;;;;;;;5.28;2.90;;;;;;;;;;6217919;28;20077;-77
2023/07/31 11:57:00;;;;;;;2.97;2.67;;;;;;;;;;6220636;28;20049;-77
2023/07/31 12:00:02;;;;;;;3.58;2.40;;;;;;;;;;6217046;28;20125;-78
2023/07/31 12:03:04;;;;;;;3.28;2.55;;;;;;;;;;6216163;28;20045;-78
2023/07/31 12:06:05;;;;;;;4.07;2.40;;;;;;;;;;6222126;28;20069;-76
2023/07/31 12:09:08;;;;;;;4.40;2.50;;;;;;;;;;6216863;28;20050;-79
2023/07/31 12:12:09;;;;;;;3.90;3.05;;;;;;;;;;6217834;28;20054;-79
2023/07/31 12:15:15;;;;;;;2.75;2.38;;;;;;;;;;6216545;28;20097;-76
2023/07/31 12:18:20;;;;;;;2.83;2.40;;;;;;;;;;6219452;28;20104;-77
2023/07/31 12:21:21;;;;;;;2.38;2.05;;;;;;;;;;6214047;28;20064;-77
2023/07/31 12:24:24;;;;;;;3.08;2.72;;;;;;;;;;6218971;28;20129;-77
2023/07/31 12:27:33;;;;;;;3.63;2.30;;;;;;;;;;6218566;28;20058;-78
2023/07/31 12:30:35;;;;;;;4.75;2.67;;;;;;;;;;6215363;28;20080;-79
2023/07/31 12:33:37;;;;;;;3.72;2.35;;;;;;;;;;6217645;28;20065;-79
2023/07/31 12:36:39;;;;;;;4.35;2.67;;;;;;;;;;6217761;28;20054;-78
2023/07/31 12:39:42;;;;;;;3.80;2.85;;;;;;;;;;6219600;28;20107;-79
2023/07/31 12:42:43;;;;;;;3.95;2.85;;;;;;;;;;6214985;28;20337;-80
2023/07/31 12:45:45;;;;;;;3.10;2.40;;;;;;;;;;6218360;28;20083;-79
2023/07/31 12:48:46;;;;;;;4.85;2.80;;;;;;;;;;6215060;28;20054;-77
2023/07/31 12:51:48;;;;;;;3.22;2.30;;;;;;;;;;6214767;28;20264;-76
2023/07/31 12:54:51;;;;;;;4.85;2.95;;;;;;;;;;6219271;28;20057;-77
2023/07/31 12:57:52;;;;;;;4.10;3.00;;;;;;;;;;6219951;28;20234;-80
2023/07/31 13:00:53;;;;;;;3.75;2.60;;;;;;;;;;6219153;28;20062;-79
2023/07/31 13:03:55;;;;;;;3.80;2.45;;;;;;;;;;6218338;28;20050;-79
2023/07/31 13:06:56;;;;;;;3.08;2.47;;;;;;;;;;6216232;28;20330;-79
2023/07/31 13:09:59;;;;;;;5.35;2.78;;;;;;;;;;6217361;28;20038;-78
2023/07/31 13:13:01;;;;;;;3.03;2.72;;;;;;;;;;6209223;28;20108;-78
2023/07/31 13:16:02;;;;;;;5.57;2.97;;;;;;;;;;6216434;28;20060;-78
2023/07/31 13:19:04;;;;;;;4.35;2.80;;;;;;;;;;6217367;28;20348;-77
2023/07/31 13:22:05;;;;;;;4.65;2.50;;;;;;;;;;6216595;28;20058;-77
2023/07/31 13:25:08;;;;;;;4.65;2.97;;;;;;;;;;6221766;28;20057;-77
2023/07/31 13:28:10;;;;;;;3.90;2.65;;;;;;;;;;6220571;28;20053;-77
2023/07/31 13:31:12;;;;;;;5.45;2.60;;;;;;;;;;6217249;28;20054;-78
2023/07/31 13:34:13;;;;;;;3.70;2.60;;;;;;;;;;6215059;28;20058;-77
2023/07/31 13:37:15;;;;;;;3.20;2.90;;;;;;;;;;6221349;28;20056;-79
2023/07/31 13:40:18;;;;;;;3.67;2.72;;;;;;;;;;6218971;28;20057;-78
2023/07/31 13:43:19;;;;;;;2.45;2.22;;;;;;;;;;6216717;28;20061;-77
2023/07/31 13:46:21;;;;;;;6.40;2.40;;;;;;;;;;6217318;28;20066;-77
2023/07/31 13:49:22;;;;;;;2.45;2.00;;;;;;;;;;6215535;28;20050;-79
2023/07/31 13:52:23;;;;;;;4.32;2.42;;;;;;;;;;6215089;28;20046;-78
2023/07/31 13:55:26;;;;;;;4.13;2.63;;;;;;;;;;6217902;28;20053;-77
2023/07/31 13:58:28;;;;;;;2.25;2.08;;;;;;;;;;6219855;28;20049;-79
2023/07/31 14:01:29;;;;;;;2.47;2.22;;;;;;;;;;6215295;28;20109;-79
2023/07/31 14:04:31;;;;;;;2.65;2.22;;;;;;;;;;6213240;28;20050;-77
2023/07/31 14:07:33;;;;;;;3.88;2.35;;;;;;;;;;6219875;28;20088;-79
2023/07/31 14:10:35;;;;;;;2.67;2.38;;;;;;;;;;6215874;28;20057;-79
2023/07/31 14:13:37;;;;;;;3.70;2.30;;;;;;;;;;6213994;28;20060;-79
2023/07/31 14:16:38;;;;;;;;;;;;;;;;;;6217354;28;20376;-79
2023/07/31 14:19:39;;;;;;;3.40;2.30;;;;;;;;;;6214330;28;19980;-79
2023/07/31 14:22:41;;;;;;;2.47;2.10;;;;;;;;;;6216696;28;20427;-78
2023/07/31 14:25:44;;;;;;;4.40;2.35;;;;;;;;;;6217335;28;20050;-79
2023/07/31 14:28:45;;;;;;;2.40;2.20;;;;;;;;;;6215900;28;20412;-78
2023/07/31 14:31:47;;;;;;;3.30;2.60;;;;;;;;;;6214630;28;20042;-78
2023/07/31 14:34:48;;;;;;;2.20;1.95;;;;;;;;;;6215514;28;20058;-79
2023/07/31 14:37:50;;;;;;;2.53;2.30;;;;;;;;;;6215385;28;20052;-79
2023/07/31 14:40:53;;;;;;;4.65;2.70;;;;;;;;;;6217534;28;20050;-79
2023/07/31 14:43:54;;;;;;;4.65;2.35;;;;;;;;;;6214697;28;20061;-79
2023/07/31 14:46:55;;;;;;;3.47;2.42;;;;;;;;;;6213355;28;20241;-78
2023/07/31 14:49:57;;;;;;;3.80;2.45;;;;;;;;;;6217231;28;20053;-79
2023/07/31 14:52:59;;;;;;;3.30;2.40;;;;;;;;;;6212420;28;20325;-80
2023/07/31 14:56:02;;;;;;;2.20;1.98;;;;;;;;;;6217924;28;20104;-76
2023/07/31 14:59:04;;;;;;;2.42;2.13;;;;;;;;;;6215428;28;20053;-79
2023/07/31 15:02:06;;;;;;;6.22;2.10;;;;;;;;;;6215073;28;20061;-80
2023/07/31 15:05:08;;;;;;;3.50;2.10;;;;;;;;;;6216918;28;20342;-78
2023/07/31 15:08:09;;;;;;;2.10;1.90;;;;;;;;;;6214909;28;20054;-78
2023/07/31 15:11:12;;;;;;;2.25;1.80;;;;;;;;;;6213893;28;20062;-78
2023/07/31 15:14:14;;;;;;;3.08;2.17;;;;;;;;;;6216680;28;20062;-77
2023/07/31 15:17:15;;;;;;;3.13;2.28;;;;;;;;;;6216945;28;20076;-78
2023/07/31 15:20:17;;;;;;;3.00;1.80;;;;;;;;;;6217967;28;20241;-78
2023/07/31 15:23:18;;;;;;;2.33;2.13;;;;;;;;;;6216686;28;20062;-79
2023/07/31 15:26:21;;;;;;;4.97;2.50;;;;;;;;;;6219248;28;20064;-78
2023/07/31 15:29:23;;;;;;;3.47;2.20;;;;;;;;;;6225908;28;20124;-79
2023/07/31 15:32:24;;;;;;;3.03;2.38;;;;;;;;;;6218678;28;20053;-80
2023/07/31 15:35:26;;;;;;;2.83;2.25;;;;;;;;;;6219466;28;20237;-80
2023/07/31 15:38:27;;;;;;;3.67;2.50;;;;;;;;;;6220482;28;20223;-79
2023/07/31 15:41:30;;;;;;;2.63;2.17;;;;;;;;;;6218283;28;20743;-76
2023/07/31 15:44:32;;;;;;;4.32;2.40;;;;;;;;;;6215943;28;20042;-77
2023/07/31 15:47:33;;;;;;;3.70;2.03;;;;;;;;;;6222315;28;20546;-78
2023/07/31 15:50:35;;;;;;;6.27;2.87;;;;;;;;;;6217797;28;20549;-78
2023/07/31 15:53:36;;;;;;;4.13;2.23;;;;;;;;;;6218349;28;20080;-78
2023/07/31 15:56:39;;;;;;;2.97;2.33;;;;;;;;;;6220480;28;20052;-79
2023/07/31 15:59:40;;;;;;;2.85;2.33;;;;;;;;;;6223090;28;20070;-79
2023/07/31 16:02:42;;;;;;;3.07;2.40;;;;;;;;;;6221334;28;20054;-79
2023/07/31 16:05:44;;;;;;;3.10;2.25;;;;;;;;;;6223546;28;20050;-79
2023/07/31 16:08:45;;;;;;;2.70;2.17;;;;;;;;;;6217267;28;20058;-79
2023/07/31 16:11:49;;;;;;;2.60;2.40;;;;;;;;;;6219830;28;20195;-79
2023/07/31 16:14:50;;;;;;;4.30;2.72;;;;;;;;;;6220541;28;20242;-79
2023/07/31 16:17:51;;;;;;;5.13;2.67;;;;;;;;;;6217555;28;20058;-78
2023/07/31 16:20:54;;;;;;;3.55;2.40;;;;;;;;;;6218291;28;20139;-79
2023/07/31 16:23:56;;;;;;;3.30;2.38;;;;;;;;;;6220631;28;20048;-78
2023/07/31 16:26:58;;;;;;;3.50;2.40;;;;;;;;;;6220601;28;20065;-77
2023/07/31 16:30:00;;;;;;;6.03;2.40;;;;;;;;;;6219526;28;20042;-79
2023/07/31 16:33:01;;;;;;;2.70;2.50;;;;;;;;;;6218013;28;20260;-77
2023/07/31 16:36:03;;;;;;;2.90;2.55;;;;;;;;;;6217615;28;20057;-74
2023/07/31 16:39:04;;;;;;;3.50;2.58;;;;;;;;;;6220558;28;20049;-74
2023/07/31 16:42:08;;;;;;;2.88;2.42;;;;;;;;;;6219465;28;20112;-75
2023/07/31 16:45:09;;;;;;;5.20;2.30;;;;;;;;;;6219364;28;20053;-75
2023/07/31 16:48:11;;;;;;;3.38;2.78;;;;;;;;;;6218921;28;20053;-76
2023/07/31 16:51:13;;;;;;;5.97;2.85;;;;;;;;;;6218651;28;20046;-74
2023/07/31 16:54:15;;;;;;;5.60;2.70;;;;;;;;;;6215128;28;20065;-76
2023/07/31 16:57:18;;;;;;;2.80;2.55;;;;;;;;;;6216795;28;20073;-73
2023/07/31 17:00:19;;;;;;;3.97;2.53;;;;;;;;;;6215657;28;20060;-77
2023/07/31 17:03:21;;;;;;;4.68;2.58;;;;;;;;;;6216746;28;20057;-75
2023/07/31 17:06:22;;;;;;;2.88;2.10;;;;;;;;;;6216935;28;20156;-77
2023/07/31 17:09:24;;;;;;;4.50;2.30;;;;;;;;;;6217895;28;20054;-75
2023/07/31 17:12:27;;;;;;;4.68;2.50;;;;;;;;;;6217048;28;20281;-75
2023/07/31 17:15:28;;;;;;;3.10;2.50;;;;;;;;;;6215958;28;20042;-76
2023/07/31 17:18:30;;;;;;;3.10;2.70;;;;;;;;;;6219015;28;20080;-75
2023/07/31 17:21:31;;;;;;;4.40;2.40;;;;;;;;;;6215832;28;20052;-76
2023/07/31 17:24:33;;;;;;;3.22;2.90;;;;;;;;;;6214125;28;20054;-77
2023/07/31 17:27:36;;;;;;;2.97;2.13;;;;;;;;;;6216722;28;20060;-76
2023/07/31 17:30:37;;;;;;;;;;;;;;;;;;6217493;28;20062;-77
2023/07/31 17:33:38;;;;;;;2.97;2.65;;;;;;;;;;6219447;28;19925;-78
2023/07/31 17:36:40;;;;;;;3.00;2.20;;;;;;;;;;6216440;28;20057;-76
2023/07/31 17:39:41;;;;;;;2.83;2.38;;;;;;;;;;6215923;28;20212;-76
2023/07/31 17:42:44;;;;;;;3.40;2.47;;;;;;;;;;6212445;28;20054;-76
2023/07/31 17:45:45;;;;;;;4.22;2.25;;;;;;;;;;6217481;28;20054;-77
2023/07/31 17:48:48;;;;;;;5.07;3.00;;;;;;;;;;6214175;28;20096;-76
2023/07/31 17:51:50;;;;;;;2.88;2.58;;;;;;;;;;6217464;28;20310;-76
2023/07/31 17:54:53;;;;;;;3.00;2.50;;;;;;;;;;6217397;28;20049;-76
2023/07/31 17:57:56;;;;;;;3.88;2.95;;;;;;;;;;6215181;28;20052;-76
2023/07/31 18:00:57;;;;;;;;;;;;;;;;;;6216168;28;20561;-76
2023/07/31 18:03:59;;;;;;;3.15;2.33;;;;;;;;;;6216375;28;19937;-75
2023/07/31 18:07:00;;;;;;;3.60;2.80;;;;;;;;;;6215882;28;20567;-76
2023/07/31 18:10:02;;;;;;;7.35;2.80;;;;;;;;;;6213394;28;20058;-75
2023/07/31 18:13:05;;;;;;;5.45;3.17;;;;;;;;;;6210709;28;20061;-76